sensor_id;sensor_type;location;lat;lon;timestamp;pressure;altitude;pressure_sealevel;temperature;humidity
13765;BME280;6953;48.810;9.204;2024-02-23T00:02:17;96731.50;;;7.10;99.87
13765;BME280;6953;48.810;9.204;2024-02-23T00:04:42;96860.81;;;7.73;100.00
13765;BME280;6953;48.810;9.204;2024-02-23T00:07:07;96566.75;;;6.33;99.66
13765;BME280;6953;48.810;9.204;2024-02-23T00:09:33;96535.03;;;6.28;98.85
13765;BME280;6953;48.810;9.204;2024-02-23T00:11:58;96531.47;;;6.41;97.31
13765;BME280;6953;48.810;9.204;2024-02-23T00:14:24;96801.66;;;8.20;96.92
13765;BME280;6953;48.810;9.204;2024-02-23T00:16:49;96798.97;;;8.32;96.40
13765;BME280;6953;48.810;9.204;2024-02-23T00:19:14;96769.50;;;8.20;95.41
13765;BME280;6953;48.810;9.204;2024-02-23T00:21:43;96653.09;;;7.47;95.32
13765;BME280;6953;48.810;9.204;2024-02-23T00:24:12;96829.66;;;8.41;94.74
13765;BME280;6953;48.810;9.204;2024-02-23T00:26:38;96832.38;;;8.40;95.20
13765;BME280;6953;48.810;9.204;2024-02-23T00:29:03;96806.72;;;7.98;95.12
13765;BME280;6953;48.810;9.204;2024-02-23T00:31:29;96850.00;;;8.49;95.04
13765;BME280;6953;48.810;9.204;2024-02-23T00:33:54;96847.38;;;8.49;94.26
13765;BME280;6953;48.810;9.204;2024-02-23T00:36:19;96850.38;;;8.55;93.68
13765;BME280;6953;48.810;9.204;2024-02-23T00:38:45;96826.47;;;8.25;93.32
13765;BME280;6953;48.810;9.204;2024-02-23T00:41:10;96857.75;;;8.61;92.80
13765;BME280;6953;48.810;9.204;2024-02-23T00:43:39;96791.09;;;8.22;91.96
13765;BME280;6953;48.810;9.204;2024-02-23T00:46:05;96785.16;;;8.20;92.24
13765;BME280;6953;48.810;9.204;2024-02-23T00:48:30;96862.63;;;8.66;91.79
13765;BME280;6953;48.810;9.204;2024-02-23T00:50:55;96857.06;;;8.70;92.15
13765;BME280;6953;48.810;9.204;2024-02-23T00:53:21;96877.88;;;8.72;92.56
13765;BME280;6953;48.810;9.204;2024-02-23T00:55:47;96589.88;;;7.09;92.26
13765;BME280;6953;48.810;9.204;2024-02-23T00:58:12;96860.63;;;8.69;92.28
13765;BME280;6953;48.810;9.204;2024-02-23T01:00:37;96881.53;;;8.69;92.11
13765;BME280;6953;48.810;9.204;2024-02-23T01:03:03;96832.28;;;8.41;92.15
13765;BME280;6953;48.810;9.204;2024-02-23T01:05:28;96635.75;;;7.12;92.00
13765;BME280;6953;48.810;9.204;2024-02-23T01:07:53;96889.00;;;8.63;92.20
13765;BME280;6953;48.810;9.204;2024-02-23T01:10:19;96898.63;;;8.62;92.73
13765;BME280;6953;48.810;9.204;2024-02-23T01:12:44;96846.91;;;8.08;92.61
13765;BME280;6953;48.810;9.204;2024-02-23T01:15:09;96849.63;;;8.07;93.01
13765;BME280;6953;48.810;9.204;2024-02-23T01:17:35;96863.09;;;8.13;93.22
13765;BME280;6953;48.810;9.204;2024-02-23T01:20:00;96931.09;;;8.47;93.18
13765;BME280;6953;48.810;9.204;2024-02-23T01:22:26;96854.91;;;8.30;93.27
13765;BME280;6953;48.810;9.204;2024-02-23T01:24:51;96656.09;;;7.30;92.64
13765;BME280;6953;48.810;9.204;2024-02-23T01:27:16;96909.19;;;8.61;92.77
13765;BME280;6953;48.810;9.204;2024-02-23T01:29:41;96923.09;;;8.61;92.43
13765;BME280;6953;48.810;9.204;2024-02-23T01:32:07;96640.50;;;7.18;92.73
13765;BME280;6953;48.810;9.204;2024-02-23T01:34:32;96785.47;;;7.92;92.26
13765;BME280;6953;48.810;9.204;2024-02-23T01:36:58;96717.94;;;7.40;92.51
13765;BME280;6953;48.810;9.204;2024-02-23T01:39:24;96913.34;;;8.40;93.70
13765;BME280;6953;48.810;9.204;2024-02-23T01:41:49;96918.09;;;8.35;93.69
13765;BME280;6953;48.810;9.204;2024-02-23T01:44:14;96895.84;;;8.29;93.65
13765;BME280;6953;48.810;9.204;2024-02-23T01:46:42;96884.31;;;8.44;93.26
13765;BME280;6953;48.810;9.204;2024-02-23T01:49:07;96895.06;;;8.63;92.76
13765;BME280;6953;48.810;9.204;2024-02-23T01:51:33;96938.03;;;8.83;92.39
13765;BME280;6953;48.810;9.204;2024-02-23T01:53:59;96932.13;;;8.92;91.87
13765;BME280;6953;48.810;9.204;2024-02-23T01:56:25;96681.31;;;7.65;91.91
13765;BME280;6953;48.810;9.204;2024-02-23T01:58:51;96817.19;;;8.45;92.17
13765;BME280;6953;48.810;9.204;2024-02-23T02:01:18;96879.34;;;8.87;92.40
13765;BME280;6953;48.810;9.204;2024-02-23T02:03:43;96937.00;;;8.96;92.21
13765;BME280;6953;48.810;9.204;2024-02-23T02:06:12;96906.13;;;9.01;92.22
13765;BME280;6953;48.810;9.204;2024-02-23T02:08:37;96777.69;;;8.26;91.99
13765;BME280;6953;48.810;9.204;2024-02-23T02:11:03;96939.19;;;9.02;91.85
13765;BME280;6953;48.810;9.204;2024-02-23T02:13:29;96909.47;;;9.03;92.04
13765;BME280;6953;48.810;9.204;2024-02-23T02:15:59;96894.69;;;8.91;91.87
13765;BME280;6953;48.810;9.204;2024-02-23T02:18:25;96960.19;;;9.01;92.18
13765;BME280;6953;48.810;9.204;2024-02-23T02:20:53;96926.09;;;9.02;92.07
13765;BME280;6953;48.810;9.204;2024-02-23T02:23:19;96938.25;;;9.03;91.25
13765;BME280;6953;48.810;9.204;2024-02-23T02:25:44;96742.97;;;7.90;91.00
13765;BME280;6953;48.810;9.204;2024-02-23T02:28:11;96905.84;;;8.93;91.32
13765;BME280;6953;48.810;9.204;2024-02-23T02:30:36;96655.34;;;7.40;90.96
13765;BME280;6953;48.810;9.204;2024-02-23T02:33:01;96932.38;;;9.00;91.35
13765;BME280;6953;48.810;9.204;2024-02-23T02:35:27;96655.06;;;7.32;91.00
13765;BME280;6953;48.810;9.204;2024-02-23T02:37:52;96834.59;;;8.33;91.49
13765;BME280;6953;48.810;9.204;2024-02-23T02:40:17;96674.38;;;7.30;90.77
13765;BME280;6953;48.810;9.204;2024-02-23T02:42:42;96871.84;;;8.48;90.90
13765;BME280;6953;48.810;9.204;2024-02-23T02:45:08;96622.88;;;6.98;90.96
13765;BME280;6953;48.810;9.204;2024-02-23T02:47:33;96913.13;;;8.66;91.16
13765;BME280;6953;48.810;9.204;2024-02-23T02:49:58;96613.53;;;6.83;90.87
13765;BME280;6953;48.810;9.204;2024-02-23T02:52:24;96661.66;;;7.02;90.56
13765;BME280;6953;48.810;9.204;2024-02-23T02:54:50;96873.28;;;8.28;90.35
13765;BME280;6953;48.810;9.204;2024-02-23T02:57:15;96931.72;;;8.51;90.80
13765;BME280;6953;48.810;9.204;2024-02-23T02:59:41;96650.13;;;6.81;88.38
13765;BME280;6953;48.810;9.204;2024-02-23T03:02:06;96930.28;;;8.47;89.57
13765;BME280;6953;48.810;9.204;2024-02-23T03:04:31;96926.09;;;8.44;89.15
13765;BME280;6953;48.810;9.204;2024-02-23T03:06:56;96787.25;;;7.55;89.65
13765;BME280;6953;48.810;9.204;2024-02-23T03:09:22;96662.22;;;6.82;89.62
13765;BME280;6953;48.810;9.204;2024-02-23T03:11:47;96941.50;;;8.36;89.50
13765;BME280;6953;48.810;9.204;2024-02-23T03:14:12;96890.22;;;8.23;89.55
13765;BME280;6953;48.810;9.204;2024-02-23T03:16:38;96915.41;;;8.12;89.40
13765;BME280;6953;48.810;9.204;2024-02-23T03:19:04;96852.34;;;7.82;89.15
13765;BME280;6953;48.810;9.204;2024-02-23T03:21:30;96923.13;;;8.25;89.54
13765;BME280;6953;48.810;9.204;2024-02-23T03:23:55;96908.84;;;8.19;89.51
13765;BME280;6953;48.810;9.204;2024-02-23T03:26:20;96631.75;;;6.47;89.23
13765;BME280;6953;48.810;9.204;2024-02-23T03:28:46;96937.69;;;8.17;88.67
13765;BME280;6953;48.810;9.204;2024-02-23T03:31:11;96900.84;;;7.97;88.65
13765;BME280;6953;48.810;9.204;2024-02-23T03:33:37;96710.56;;;6.74;88.11
13765;BME280;6953;48.810;9.204;2024-02-23T03:36:03;96926.28;;;8.18;87.76
13765;BME280;6953;48.810;9.204;2024-02-23T03:38:28;96916.88;;;8.16;86.56
13765;BME280;6953;48.810;9.204;2024-02-23T03:40:55;96662.16;;;6.59;87.33
13765;BME280;6953;48.810;9.204;2024-02-23T03:43:20;96668.41;;;6.56;86.46
13765;BME280;6953;48.810;9.204;2024-02-23T03:45:46;96938.72;;;8.02;86.17
13765;BME280;6953;48.810;9.204;2024-02-23T03:48:11;96921.19;;;8.04;86.21
13765;BME280;6953;48.810;9.204;2024-02-23T03:50:36;96972.78;;;8.13;85.15
13765;BME280;6953;48.810;9.204;2024-02-23T03:53:02;96942.47;;;8.11;85.47
13765;BME280;6953;48.810;9.204;2024-02-23T03:55:28;96949.38;;;8.12;85.23
13765;BME280;6953;48.810;9.204;2024-02-23T03:57:53;96950.44;;;8.09;85.17
13765;BME280;6953;48.810;9.204;2024-02-23T04:00:18;96947.84;;;7.97;86.01
13765;BME280;6953;48.810;9.204;2024-02-23T04:02:45;96971.75;;;8.03;85.46
13765;BME280;6953;48.810;9.204;2024-02-23T04:05:11;96950.84;;;8.03;85.13
13765;BME280;6953;48.810;9.204;2024-02-23T04:07:36;96659.78;;;6.31;85.07
13765;BME280;6953;48.810;9.204;2024-02-23T04:10:02;96851.47;;;7.45;84.93
13765;BME280;6953;48.810;9.204;2024-02-23T04:12:31;96933.66;;;7.88;83.44
13765;BME280;6953;48.810;9.204;2024-02-23T04:14:56;96884.75;;;7.54;83.41
13765;BME280;6953;48.810;9.204;2024-02-23T04:17:21;96645.31;;;6.15;83.62
13765;BME280;6953;48.810;9.204;2024-02-23T04:19:53;96952.00;;;7.99;82.15
13765;BME280;6953;48.810;9.204;2024-02-23T04:22:18;96953.06;;;7.97;82.21
13765;BME280;6953;48.810;9.204;2024-02-23T04:24:43;96943.47;;;7.85;82.11
13765;BME280;6953;48.810;9.204;2024-02-23T04:27:09;96966.66;;;7.89;82.80
13765;BME280;6953;48.810;9.204;2024-02-23T04:29:34;96654.56;;;6.06;82.78
13765;BME280;6953;48.810;9.204;2024-02-23T04:32:00;96912.09;;;7.49;83.11
13765;BME280;6953;48.810;9.204;2024-02-23T04:34:26;96872.03;;;7.25;83.44
13765;BME280;6953;48.810;9.204;2024-02-23T04:36:51;96944.25;;;7.74;83.23
13765;BME280;6953;48.810;9.204;2024-02-23T04:39:17;96821.59;;;7.01;83.48
13765;BME280;6953;48.810;9.204;2024-02-23T04:42:00;96916.28;;;7.51;83.50
13765;BME280;6953;48.810;9.204;2024-02-23T04:44:25;96856.84;;;7.07;83.25
13765;BME280;6953;48.810;9.204;2024-02-23T04:46:51;96963.84;;;7.67;82.70
13765;BME280;6953;48.810;9.204;2024-02-23T04:49:16;96887.81;;;7.23;82.94
13765;BME280;6953;48.810;9.204;2024-02-23T04:51:41;96945.38;;;7.58;82.94
13765;BME280;6953;48.810;9.204;2024-02-23T04:54:06;96952.16;;;7.60;83.21
13765;BME280;6953;48.810;9.204;2024-02-23T04:56:32;96732.59;;;6.32;82.33
13765;BME280;6953;48.810;9.204;2024-02-23T04:58:58;96840.97;;;6.97;82.32
13765;BME280;6953;48.810;9.204;2024-02-23T05:01:24;96883.41;;;7.24;82.87
13765;BME280;6953;48.810;9.204;2024-02-23T05:03:49;96837.97;;;7.03;82.67
13765;BME280;6953;48.810;9.204;2024-02-23T05:06:14;96886.25;;;7.21;82.29
13765;BME280;6953;48.810;9.204;2024-02-23T05:08:40;96919.84;;;7.50;81.49
13765;BME280;6953;48.810;9.204;2024-02-23T05:11:06;96588.84;;;5.53;80.84
13765;BME280;6953;48.810;9.204;2024-02-23T05:13:31;96916.69;;;7.45;82.03
13765;BME280;6953;48.810;9.204;2024-02-23T05:15:56;96922.25;;;7.41;81.56
13765;BME280;6953;48.810;9.204;2024-02-23T05:18:22;96835.03;;;6.83;81.70
13765;BME280;6953;48.810;9.204;2024-02-23T05:20:47;96927.34;;;7.30;82.57
13765;BME280;6953;48.810;9.204;2024-02-23T05:23:13;96886.75;;;6.89;82.97
13765;BME280;6953;48.810;9.204;2024-02-23T05:25:41;96706.69;;;5.80;83.04
13765;BME280;6953;48.810;9.204;2024-02-23T05:28:06;96933.38;;;7.18;82.87
13765;BME280;6953;48.810;9.204;2024-02-23T05:30:31;96814.44;;;6.41;82.94
13765;BME280;6953;48.810;9.204;2024-02-23T05:32:57;96991.91;;;7.26;82.96
13765;BME280;6953;48.810;9.204;2024-02-23T05:35:24;96678.22;;;5.64;83.03
13765;BME280;6953;48.810;9.204;2024-02-23T05:37:49;96914.72;;;6.99;83.49
13765;BME280;6953;48.810;9.204;2024-02-23T05:40:15;96957.28;;;7.24;82.61
13765;BME280;6953;48.810;9.204;2024-02-23T05:42:41;96697.97;;;5.67;82.22
13765;BME280;6953;48.810;9.204;2024-02-23T05:45:07;96965.63;;;7.29;82.50
13765;BME280;6953;48.810;9.204;2024-02-23T05:47:35;96695.38;;;5.67;82.53
13765;BME280;6953;48.810;9.204;2024-02-23T05:50:02;96909.56;;;6.98;82.49
13765;BME280;6953;48.810;9.204;2024-02-23T05:52:28;96968.97;;;7.31;82.16
13765;BME280;6953;48.810;9.204;2024-02-23T05:54:53;96938.44;;;6.95;82.60
13765;BME280;6953;48.810;9.204;2024-02-23T05:57:21;96706.16;;;5.61;82.39
13765;BME280;6953;48.810;9.204;2024-02-23T05:59:46;96936.56;;;6.72;82.19
13765;BME280;6953;48.810;9.204;2024-02-23T06:02:12;96690.69;;;5.33;83.73
13765;BME280;6953;48.810;9.204;2024-02-23T06:04:37;96983.78;;;6.80;84.93
13765;BME280;6953;48.810;9.204;2024-02-23T06:07:02;96976.16;;;6.77;86.01
13765;BME280;6953;48.810;9.204;2024-02-23T06:09:27;96977.44;;;6.57;85.57
13765;BME280;6953;48.810;9.204;2024-02-23T06:11:53;96756.75;;;5.43;85.30
13765;BME280;6953;48.810;9.204;2024-02-23T06:14:18;96989.84;;;6.80;85.89
13765;BME280;6953;48.810;9.204;2024-02-23T06:16:44;96981.19;;;6.53;86.59
13765;BME280;6953;48.810;9.204;2024-02-23T06:19:09;96959.41;;;6.54;86.46
13765;BME280;6953;48.810;9.204;2024-02-23T06:21:34;97006.91;;;6.84;86.36
13765;BME280;6953;48.810;9.204;2024-02-23T06:23:59;96985.06;;;6.60;86.74
13765;BME280;6953;48.810;9.204;2024-02-23T06:26:25;97025.28;;;6.83;87.65
13765;BME280;6953;48.810;9.204;2024-02-23T06:28:50;97019.25;;;6.82;87.31
13765;BME280;6953;48.810;9.204;2024-02-23T06:31:15;96960.22;;;6.55;86.65
13765;BME280;6953;48.810;9.204;2024-02-23T06:33:41;96713.13;;;4.94;86.75
13765;BME280;6953;48.810;9.204;2024-02-23T06:36:07;97013.22;;;6.68;88.14
13765;BME280;6953;48.810;9.204;2024-02-23T06:38:33;96927.81;;;6.20;88.37
13765;BME280;6953;48.810;9.204;2024-02-23T06:40:58;96969.81;;;6.54;88.55
13765;BME280;6953;48.810;9.204;2024-02-23T06:43:23;97029.94;;;6.78;89.38
13765;BME280;6953;48.810;9.204;2024-02-23T06:45:49;96966.03;;;6.46;89.72
13765;BME280;6953;48.810;9.204;2024-02-23T06:48:14;96716.81;;;5.17;90.01
13765;BME280;6953;48.810;9.204;2024-02-23T06:50:40;96927.78;;;6.46;90.72
13765;BME280;6953;48.810;9.204;2024-02-23T06:53:05;96995.09;;;6.93;91.12
13765;BME280;6953;48.810;9.204;2024-02-23T06:55:32;96853.97;;;6.21;90.10
13765;BME280;6953;48.810;9.204;2024-02-23T06:57:58;96922.03;;;6.68;90.58
13765;BME280;6953;48.810;9.204;2024-02-23T07:00:23;96986.34;;;7.06;90.69
13765;BME280;6953;48.810;9.204;2024-02-23T07:02:48;96941.44;;;6.76;90.66
13765;BME280;6953;48.810;9.204;2024-02-23T07:05:13;96960.91;;;7.10;90.32
13765;BME280;6953;48.810;9.204;2024-02-23T07:07:39;96928.75;;;6.97;90.44
13765;BME280;6953;48.810;9.204;2024-02-23T07:10:06;96979.72;;;7.39;90.52
13765;BME280;6953;48.810;9.204;2024-02-23T07:12:31;96991.41;;;7.46;90.38
13765;BME280;6953;48.810;9.204;2024-02-23T07:14:56;97014.59;;;7.63;90.04
13765;BME280;6953;48.810;9.204;2024-02-23T07:17:22;97012.59;;;7.67;89.78
13765;BME280;6953;48.810;9.204;2024-02-23T07:19:47;96740.25;;;6.09;90.19
13765;BME280;6953;48.810;9.204;2024-02-23T07:22:13;96791.22;;;6.38;89.86
13765;BME280;6953;48.810;9.204;2024-02-23T07:24:42;96862.03;;;6.94;89.49
13765;BME280;6953;48.810;9.204;2024-02-23T07:27:07;97014.25;;;7.80;90.13
13765;BME280;6953;48.810;9.204;2024-02-23T07:29:32;97028.47;;;7.89;90.19
13765;BME280;6953;48.810;9.204;2024-02-23T07:31:58;97001.41;;;7.90;89.77
13765;BME280;6953;48.810;9.204;2024-02-23T07:34:23;97006.00;;;8.11;89.56
13765;BME280;6953;48.810;9.204;2024-02-23T07:36:51;97007.25;;;8.18;88.82
13765;BME280;6953;48.810;9.204;2024-02-23T07:39:17;97034.00;;;8.22;88.11
13765;BME280;6953;48.810;9.204;2024-02-23T07:41:42;96919.34;;;7.81;87.79
13765;BME280;6953;48.810;9.204;2024-02-23T07:44:08;96986.72;;;8.37;87.60
13765;BME280;6953;48.810;9.204;2024-02-23T07:46:33;96758.72;;;6.93;86.28
13765;BME280;6953;48.810;9.204;2024-02-23T07:48:58;97001.84;;;8.80;86.31
13765;BME280;6953;48.810;9.204;2024-02-23T07:51:24;96922.56;;;8.45;84.50
13765;BME280;6953;48.810;9.204;2024-02-23T07:53:49;97007.28;;;9.01;84.50
13765;BME280;6953;48.810;9.204;2024-02-23T07:56:14;96991.81;;;8.98;83.82
13765;BME280;6953;48.810;9.204;2024-02-23T07:58:40;96936.53;;;8.68;83.65
13765;BME280;6953;48.810;9.204;2024-02-23T08:01:05;97012.56;;;9.12;83.54
13765;BME280;6953;48.810;9.204;2024-02-23T08:03:30;96766.31;;;7.57;82.13
13765;BME280;6953;48.810;9.204;2024-02-23T08:05:56;97022.41;;;9.08;82.46
13765;BME280;6953;48.810;9.204;2024-02-23T08:08:22;96687.72;;;7.02;82.01
13765;BME280;6953;48.810;9.204;2024-02-23T08:10:49;96763.00;;;7.42;82.58
13765;BME280;6953;48.810;9.204;2024-02-23T08:13:14;97011.31;;;8.94;82.34
13765;BME280;6953;48.810;9.204;2024-02-23T08:15:40;97011.78;;;8.99;81.90
13765;BME280;6953;48.810;9.204;2024-02-23T08:18:05;96953.19;;;8.67;81.87
13765;BME280;6953;48.810;9.204;2024-02-23T08:20:31;96936.25;;;8.60;81.48
13765;BME280;6953;48.810;9.204;2024-02-23T08:22:56;96948.72;;;8.80;81.07
13765;BME280;6953;48.810;9.204;2024-02-23T08:25:21;97049.50;;;9.30;80.94
13765;BME280;6953;48.810;9.204;2024-02-23T08:27:47;96716.03;;;7.66;79.37
13765;BME280;6953;48.810;9.204;2024-02-23T08:30:13;96995.72;;;9.72;78.18
13765;BME280;6953;48.810;9.204;2024-02-23T08:32:38;96741.03;;;8.04;76.54
13765;BME280;6953;48.810;9.204;2024-02-23T08:35:04;96995.34;;;9.65;76.77
13765;BME280;6953;48.810;9.204;2024-02-23T08:37:29;96998.94;;;9.75;77.31
13765;BME280;6953;48.810;9.204;2024-02-23T08:39:55;96962.97;;;9.55;76.67
13765;BME280;6953;48.810;9.204;2024-02-23T08:42:21;96983.19;;;9.53;76.21
13765;BME280;6953;48.810;9.204;2024-02-23T08:44:46;96720.63;;;8.09;75.71
13765;BME280;6953;48.810;9.204;2024-02-23T08:47:12;97014.88;;;9.83;75.35
13765;BME280;6953;48.810;9.204;2024-02-23T08:49:37;96807.16;;;8.73;75.17
13765;BME280;6953;48.810;9.204;2024-02-23T08:52:02;97019.69;;;10.00;74.31
13765;BME280;6953;48.810;9.204;2024-02-23T08:54:29;97024.25;;;10.09;74.57
13765;BME280;6953;48.810;9.204;2024-02-23T08:56:54;97014.72;;;10.08;74.26
13765;BME280;6953;48.810;9.204;2024-02-23T08:59:19;96838.72;;;9.05;73.22
13765;BME280;6953;48.810;9.204;2024-02-23T09:01:45;96765.19;;;8.53;72.41
13765;BME280;6953;48.810;9.204;2024-02-23T09:04:12;97053.75;;;10.00;72.18
13765;BME280;6953;48.810;9.204;2024-02-23T09:06:37;96759.75;;;8.56;71.97
13765;BME280;6953;48.810;9.204;2024-02-23T09:09:02;97007.00;;;10.07;70.45
13765;BME280;6953;48.810;9.204;2024-02-23T09:11:27;97021.97;;;10.16;69.81
13765;BME280;6953;48.810;9.204;2024-02-23T09:13:53;96955.72;;;9.70;69.96
13765;BME280;6953;48.810;9.204;2024-02-23T09:16:18;97029.72;;;10.39;69.37
13765;BME280;6953;48.810;9.204;2024-02-23T09:18:44;96973.75;;;10.18;68.03
13765;BME280;6953;48.810;9.204;2024-02-23T09:21:09;96758.97;;;8.99;67.67
13765;BME280;6953;48.810;9.204;2024-02-23T09:23:34;97006.59;;;10.55;66.97
13765;BME280;6953;48.810;9.204;2024-02-23T09:26:00;96991.06;;;10.63;66.70
13765;BME280;6953;48.810;9.204;2024-02-23T09:28:25;97037.09;;;11.09;66.19
13765;BME280;6953;48.810;9.204;2024-02-23T09:30:50;97059.59;;;11.23;64.83
13765;BME280;6953;48.810;9.204;2024-02-23T09:33:15;97031.94;;;11.19;64.03
13765;BME280;6953;48.810;9.204;2024-02-23T09:35:41;96962.28;;;10.83;63.16
13765;BME280;6953;48.810;9.204;2024-02-23T09:38:06;97037.38;;;11.27;64.04
13765;BME280;6953;48.810;9.204;2024-02-23T09:40:31;97032.22;;;11.36;63.36
13765;BME280;6953;48.810;9.204;2024-02-23T09:42:58;97042.59;;;11.69;62.43
13765;BME280;6953;48.810;9.204;2024-02-23T09:45:27;96789.88;;;10.44;60.80
13765;BME280;6953;48.810;9.204;2024-02-23T09:47:57;97079.16;;;12.43;57.97
13765;BME280;6953;48.810;9.204;2024-02-23T09:50:23;97043.22;;;12.92;55.18
13765;BME280;6953;48.810;9.204;2024-02-23T09:52:49;97044.81;;;13.51;51.03
13765;BME280;6953;48.810;9.204;2024-02-23T09:55:17;97035.00;;;14.37;48.66
13765;BME280;6953;48.810;9.204;2024-02-23T09:57:44;96983.63;;;15.47;43.90
13765;BME280;6953;48.810;9.204;2024-02-23T10:00:10;96561.31;;;13.12;39.59
13765;BME280;6953;48.810;9.204;2024-02-23T10:02:36;97021.06;;;17.36;37.49
13765;BME280;6953;48.810;9.204;2024-02-23T10:05:02;96841.56;;;15.82;37.06
13765;BME280;6953;48.810;9.204;2024-02-23T10:07:28;97022.16;;;16.17;40.07
13765;BME280;6953;48.810;9.204;2024-02-23T10:09:53;97034.34;;;15.67;42.43
13765;BME280;6953;48.810;9.204;2024-02-23T10:12:20;96822.00;;;14.29;43.69
13765;BME280;6953;48.810;9.204;2024-02-23T10:14:46;97056.25;;;15.16;44.52
13765;BME280;6953;48.810;9.204;2024-02-23T10:17:11;96962.22;;;13.88;46.05
13765;BME280;6953;48.810;9.204;2024-02-23T10:19:36;97023.78;;;13.97;47.77
13765;BME280;6953;48.810;9.204;2024-02-23T10:22:03;97072.94;;;13.88;49.47
13765;BME280;6953;48.810;9.204;2024-02-23T10:24:28;97043.25;;;13.77;50.03
13765;BME280;6953;48.810;9.204;2024-02-23T10:26:53;97046.75;;;13.68;50.32
13765;BME280;6953;48.810;9.204;2024-02-23T10:29:20;97057.53;;;13.84;49.81
13765;BME280;6953;48.810;9.204;2024-02-23T10:31:47;97065.19;;;13.77;47.51
13765;BME280;6953;48.810;9.204;2024-02-23T10:34:18;97088.06;;;13.48;49.42
13765;BME280;6953;48.810;9.204;2024-02-23T10:36:45;96997.94;;;12.98;49.87
13765;BME280;6953;48.810;9.204;2024-02-23T10:39:16;97014.53;;;12.98;50.33
13765;BME280;6953;48.810;9.204;2024-02-23T10:41:57;96796.03;;;11.55;51.24
13765;BME280;6953;48.810;9.204;2024-02-23T10:44:27;97006.63;;;12.98;50.58
13765;BME280;6953;48.810;9.204;2024-02-23T10:46:54;97020.13;;;13.33;49.38
13765;BME280;6953;48.810;9.204;2024-02-23T10:49:20;97044.78;;;13.79;48.56
13765;BME280;6953;48.810;9.204;2024-02-23T10:51:51;96974.81;;;14.04;46.70
13765;BME280;6953;48.810;9.204;2024-02-23T10:54:17;97037.28;;;14.49;44.15
13765;BME280;6953;48.810;9.204;2024-02-23T10:56:47;97061.97;;;14.57;45.19
13765;BME280;6953;48.810;9.204;2024-02-23T10:59:12;97044.59;;;15.18;43.71
13765;BME280;6953;48.810;9.204;2024-02-23T11:01:39;97050.31;;;15.58;42.53
13765;BME280;6953;48.810;9.204;2024-02-23T11:04:06;97042.97;;;15.52;42.03
13765;BME280;6953;48.810;9.204;2024-02-23T11:06:33;97066.75;;;15.69;42.00
13765;BME280;6953;48.810;9.204;2024-02-23T11:09:06;97041.38;;;16.02;40.50
13765;BME280;6953;48.810;9.204;2024-02-23T11:11:33;96915.88;;;15.46;40.63
13765;BME280;6953;48.810;9.204;2024-02-23T11:14:02;97035.38;;;15.74;40.26
13765;BME280;6953;48.810;9.204;2024-02-23T11:16:31;97035.88;;;15.35;42.02
13765;BME280;6953;48.810;9.204;2024-02-23T11:19:06;96949.59;;;14.82;42.35
13765;BME280;6953;48.810;9.204;2024-02-23T11:21:36;97015.72;;;14.63;43.94
13765;BME280;6953;48.810;9.204;2024-02-23T11:24:03;96936.47;;;13.73;44.98
13765;BME280;6953;48.810;9.204;2024-02-23T11:26:29;96959.66;;;13.60;46.52
13765;BME280;6953;48.810;9.204;2024-02-23T11:28:54;97007.06;;;13.69;46.33
13765;BME280;6953;48.810;9.204;2024-02-23T11:31:21;97002.09;;;13.48;46.95
13765;BME280;6953;48.810;9.204;2024-02-23T11:33:55;96940.72;;;13.19;46.87
13765;BME280;6953;48.810;9.204;2024-02-23T11:36:27;97003.19;;;13.73;46.98
13765;BME280;6953;48.810;9.204;2024-02-23T11:38:54;96828.59;;;12.69;46.67
13765;BME280;6953;48.810;9.204;2024-02-23T11:41:23;96890.41;;;13.22;46.74
13765;BME280;6953;48.810;9.204;2024-02-23T11:43:49;96962.13;;;13.80;46.15
13765;BME280;6953;48.810;9.204;2024-02-23T11:46:15;96759.66;;;12.75;45.84
13765;BME280;6953;48.810;9.204;2024-02-23T11:48:41;96820.56;;;13.08;45.44
13765;BME280;6953;48.810;9.204;2024-02-23T11:51:09;96800.63;;;12.49;44.83
13765;BME280;6953;48.810;9.204;2024-02-23T11:53:35;96786.41;;;12.51;45.26
13765;BME280;6953;48.810;9.204;2024-02-23T11:56:01;96945.09;;;13.47;45.62
13765;BME280;6953;48.810;9.204;2024-02-23T11:58:27;96965.63;;;13.43;46.75
13765;BME280;6953;48.810;9.204;2024-02-23T12:00:52;96917.38;;;12.86;47.08
13765;BME280;6953;48.810;9.204;2024-02-23T12:03:17;96743.94;;;11.60;47.78
13765;BME280;6953;48.810;9.204;2024-02-23T12:05:43;96968.47;;;12.74;47.96
13765;BME280;6953;48.810;9.204;2024-02-23T12:08:08;96906.41;;;12.43;48.36
13765;BME280;6953;48.810;9.204;2024-02-23T12:10:33;96925.09;;;12.40;49.09
13765;BME280;6953;48.810;9.204;2024-02-23T12:12:59;96958.34;;;12.60;49.83
13765;BME280;6953;48.810;9.204;2024-02-23T12:15:25;96740.53;;;11.39;48.83
13765;BME280;6953;48.810;9.204;2024-02-23T12:17:50;96721.94;;;11.51;47.61
13765;BME280;6953;48.810;9.204;2024-02-23T12:20:15;96902.84;;;12.82;48.03
13765;BME280;6953;48.810;9.204;2024-02-23T12:22:41;96927.78;;;13.35;46.94
13765;BME280;6953;48.810;9.204;2024-02-23T12:25:07;96708.63;;;12.30;46.28
13765;BME280;6953;48.810;9.204;2024-02-23T12:27:32;96971.25;;;13.86;46.59
13765;BME280;6953;48.810;9.204;2024-02-23T12:29:58;96938.28;;;13.63;45.94
13765;BME280;6953;48.810;9.204;2024-02-23T12:32:24;96971.22;;;13.95;45.91
13765;BME280;6953;48.810;9.204;2024-02-23T12:34:50;96735.78;;;12.86;44.22
13765;BME280;6953;48.810;9.204;2024-02-23T12:37:18;96948.25;;;14.24;43.19
13765;BME280;6953;48.810;9.204;2024-02-23T12:39:46;96999.63;;;14.20;43.29
13765;BME280;6953;48.810;9.204;2024-02-23T12:42:11;96739.16;;;12.59;44.24
13765;BME280;6953;48.810;9.204;2024-02-23T12:44:37;96970.59;;;13.65;45.30
13765;BME280;6953;48.810;9.204;2024-02-23T12:47:02;96973.41;;;14.00;45.03
13765;BME280;6953;48.810;9.204;2024-02-23T12:49:28;96852.63;;;13.40;45.11
13765;BME280;6953;48.810;9.204;2024-02-23T12:51:53;96904.91;;;13.54;46.19
13765;BME280;6953;48.810;9.204;2024-02-23T12:54:18;96970.56;;;13.84;44.98
13765;BME280;6953;48.810;9.204;2024-02-23T12:56:44;96972.53;;;13.63;45.08
13765;BME280;6953;48.810;9.204;2024-02-23T12:59:09;96919.50;;;13.11;45.94
13765;BME280;6953;48.810;9.204;2024-02-23T13:01:38;96791.25;;;12.28;47.16
13765;BME280;6953;48.810;9.204;2024-02-23T13:04:04;96726.16;;;11.82;47.43
13765;BME280;6953;48.810;9.204;2024-02-23T13:06:39;96925.16;;;12.87;48.51
13765;BME280;6953;48.810;9.204;2024-02-23T13:09:07;96810.69;;;12.06;49.62
13765;BME280;6953;48.810;9.204;2024-02-23T13:11:38;96858.06;;;12.44;49.16